sensor_id;sensor_type;location;lat;lon;timestamp;temperature;humidity
20070;DHT22;10195;50.868;4.382;2023-05-23T00:01:53;13.50;99.90
20070;DHT22;10195;50.868;4.382;2023-05-23T00:04:19;13.50;99.90
20070;DHT22;10195;50.868;4.382;2023-05-23T00:06:45;13.50;99.90
20070;DHT22;10195;50.868;4.382;2023-05-23T00:09:14;13.40;99.90
20070;DHT22;10195;50.868;4.382;2023-05-23T00:11:41;13.50;99.90
20070;DHT22;10195;50.868;4.382;2023-05-23T00:14:13;13.50;99.90
20070;DHT22;10195;50.868;4.382;2023-05-23T00:16:40;13.50;99.90
20070;DHT22;10195;50.868;4.382;2023-05-23T00:19:07;13.50;99.90
20070;DHT22;10195;50.868;4.382;2023-05-23T00:21:33;13.60;99.90
20070;DHT22;10195;50.868;4.382;2023-05-23T00:23:59;13.80;99.90
20070;DHT22;10195;50.868;4.382;2023-05-23T00:26:27;13.80;99.90
20070;DHT22;10195;50.868;4.382;2023-05-23T00:28:54;13.70;99.90
20070;DHT22;10195;50.868;4.382;2023-05-23T00:31:21;13.80;99.90
20070;DHT22;10195;50.868;4.382;2023-05-23T00:33:46;13.80;99.90
20070;DHT22;10195;50.868;4.382;2023-05-23T00:36:12;13.90;99.90
20070;DHT22;10195;50.868;4.382;2023-05-23T00:38:38;13.80;99.90
20070;DHT22;10195;50.868;4.382;2023-05-23T00:41:07;13.90;99.90
20070;DHT22;10195;50.868;4.382;2023-05-23T00:43:33;13.90;99.90
20070;DHT22;10195;50.868;4.382;2023-05-23T00:45:59;14.00;99.90
20070;DHT22;10195;50.868;4.382;2023-05-23T00:48:25;13.90;99.90
20070;DHT22;10195;50.868;4.382;2023-05-23T00:50:52;13.90;99.90
20070;DHT22;10195;50.868;4.382;2023-05-23T00:53:19;13.80;99.90
20070;DHT22;10195;50.868;4.382;2023-05-23T00:55:45;14.00;99.90
20070;DHT22;10195;50.868;4.382;2023-05-23T00:58:11;14.10;99.90
20070;DHT22;10195;50.868;4.382;2023-05-23T01:00:40;14.10;99.90
20070;DHT22;10195;50.868;4.382;2023-05-23T01:03:06;14.00;99.90
20070;DHT22;10195;50.868;4.382;2023-05-23T01:05:32;14.10;99.90
20070;DHT22;10195;50.868;4.382;2023-05-23T01:07:57;13.90;99.90
20070;DHT22;10195;50.868;4.382;2023-05-23T01:10:30;14.00;99.90
20070;DHT22;10195;50.868;4.382;2023-05-23T01:16:24;14.10;99.90
20070;DHT22;10195;50.868;4.382;2023-05-23T01:18:35;14.00;99.90
20070;DHT22;10195;50.868;4.382;2023-05-23T01:21:31;13.90;99.90
20070;DHT22;10195;50.868;4.382;2023-05-23T01:24:15;14.00;99.90
20070;DHT22;10195;50.868;4.382;2023-05-23T01:29:27;14.00;99.90
20070;DHT22;10195;50.868;4.382;2023-05-23T01:31:56;14.00;99.90
20070;DHT22;10195;50.868;4.382;2023-05-23T01:34:22;14.00;99.90
20070;DHT22;10195;50.868;4.382;2023-05-23T01:36:54;14.00;99.90
20070;DHT22;10195;50.868;4.382;2023-05-23T01:39:21;14.20;99.90
20070;DHT22;10195;50.868;4.382;2023-05-23T01:41:51;14.20;99.90
20070;DHT22;10195;50.868;4.382;2023-05-23T01:44:17;14.30;99.90
20070;DHT22;10195;50.868;4.382;2023-05-23T01:46:44;14.20;99.90
20070;DHT22;10195;50.868;4.382;2023-05-23T01:49:12;14.30;99.90
20070;DHT22;10195;50.868;4.382;2023-05-23T01:51:38;14.40;99.90
20070;DHT22;10195;50.868;4.382;2023-05-23T01:54:05;14.40;99.90
20070;DHT22;10195;50.868;4.382;2023-05-23T01:56:31;14.40;99.90
20070;DHT22;10195;50.868;4.382;2023-05-23T01:58:57;14.40;99.90
20070;DHT22;10195;50.868;4.382;2023-05-23T02:01:23;14.60;99.90
20070;DHT22;10195;50.868;4.382;2023-05-23T02:03:49;14.50;99.90
20070;DHT22;10195;50.868;4.382;2023-05-23T02:06:14;14.40;99.90
20070;DHT22;10195;50.868;4.382;2023-05-23T02:08:40;14.50;99.90
20070;DHT22;10195;50.868;4.382;2023-05-23T02:11:06;14.50;99.90
20070;DHT22;10195;50.868;4.382;2023-05-23T02:13:33;14.60;99.90
20070;DHT22;10195;50.868;4.382;2023-05-23T02:15:59;14.50;99.90
20070;DHT22;10195;50.868;4.382;2023-05-23T02:18:25;14.50;99.90
20070;DHT22;10195;50.868;4.382;2023-05-23T02:20:53;14.40;99.90
20070;DHT22;10195;50.868;4.382;2023-05-23T02:23:20;14.50;99.90
20070;DHT22;10195;50.868;4.382;2023-05-23T02:25:46;14.40;99.90
20070;DHT22;10195;50.868;4.382;2023-05-23T02:28:12;14.30;99.90
20070;DHT22;10195;50.868;4.382;2023-05-23T02:30:38;14.30;99.90
20070;DHT22;10195;50.868;4.382;2023-05-23T02:33:05;14.20;99.90
20070;DHT22;10195;50.868;4.382;2023-05-23T02:35:31;14.10;99.90
20070;DHT22;10195;50.868;4.382;2023-05-23T02:37:57;14.10;99.90
20070;DHT22;10195;50.868;4.382;2023-05-23T02:40:22;14.10;99.90
20070;DHT22;10195;50.868;4.382;2023-05-23T02:42:48;14.00;99.90
20070;DHT22;10195;50.868;4.382;2023-05-23T02:45:16;14.10;99.90
20070;DHT22;10195;50.868;4.382;2023-05-23T02:47:42;14.10;99.90
20070;DHT22;10195;50.868;4.382;2023-05-23T02:50:08;14.10;99.90
20070;DHT22;10195;50.868;4.382;2023-05-23T02:52:34;14.10;99.90
20070;DHT22;10195;50.868;4.382;2023-05-23T02:54:59;14.10;99.90
20070;DHT22;10195;50.868;4.382;2023-05-23T02:57:26;14.10;99.90
20070;DHT22;10195;50.868;4.382;2023-05-23T02:59:51;14.10;99.90
20070;DHT22;10195;50.868;4.382;2023-05-23T03:02:17;14.00;99.90
20070;DHT22;10195;50.868;4.382;2023-05-23T03:04:43;14.00;99.90
20070;DHT22;10195;50.868;4.382;2023-05-23T03:07:08;14.00;99.90
20070;DHT22;10195;50.868;4.382;2023-05-23T03:09:35;14.00;99.90
20070;DHT22;10195;50.868;4.382;2023-05-23T03:12:01;14.00;99.90
20070;DHT22;10195;50.868;4.382;2023-05-23T03:14:26;14.00;99.90
20070;DHT22;10195;50.868;4.382;2023-05-23T03:16:52;13.90;99.90
20070;DHT22;10195;50.868;4.382;2023-05-23T03:19:18;13.80;99.90
20070;DHT22;10195;50.868;4.382;2023-05-23T03:21:43;13.70;99.90
20070;DHT22;10195;50.868;4.382;2023-05-23T03:24:09;13.70;99.90
20070;DHT22;10195;50.868;4.382;2023-05-23T03:26:34;13.70;99.90
20070;DHT22;10195;50.868;4.382;2023-05-23T03:29:00;13.70;99.90
20070;DHT22;10195;50.868;4.382;2023-05-23T03:31:26;13.60;99.90
20070;DHT22;10195;50.868;4.382;2023-05-23T03:33:52;13.50;99.90
20070;DHT22;10195;50.868;4.382;2023-05-23T03:36:18;13.60;99.90
20070;DHT22;10195;50.868;4.382;2023-05-23T03:38:43;13.50;99.90
20070;DHT22;10195;50.868;4.382;2023-05-23T03:41:09;13.50;99.90
20070;DHT22;10195;50.868;4.382;2023-05-23T03:43:35;13.60;99.90
20070;DHT22;10195;50.868;4.382;2023-05-23T03:46:01;13.60;99.90
20070;DHT22;10195;50.868;4.382;2023-05-23T03:48:26;13.50;99.90
20070;DHT22;10195;50.868;4.382;2023-05-23T03:50:54;13.60;99.90
20070;DHT22;10195;50.868;4.382;2023-05-23T03:53:20;13.50;99.90
20070;DHT22;10195;50.868;4.382;2023-05-23T03:55:45;13.50;99.90
20070;DHT22;10195;50.868;4.382;2023-05-23T03:58:11;13.50;99.90
20070;DHT22;10195;50.868;4.382;2023-05-23T04:00:37;13.50;99.90
20070;DHT22;10195;50.868;4.382;2023-05-23T04:03:02;13.40;99.90
20070;DHT22;10195;50.868;4.382;2023-05-23T04:05:29;13.50;99.90
20070;DHT22;10195;50.868;4.382;2023-05-23T04:07:54;13.50;99.90
20070;DHT22;10195;50.868;4.382;2023-05-23T04:10:21;13.60;99.90
20070;DHT22;10195;50.868;4.382;2023-05-23T04:12:47;13.70;99.90
20070;DHT22;10195;50.868;4.382;2023-05-23T04:15:13;13.70;99.90
20070;DHT22;10195;50.868;4.382;2023-05-23T04:17:38;13.80;99.90
20070;DHT22;10195;50.868;4.382;2023-05-23T04:20:08;13.90;99.90
20070;DHT22;10195;50.868;4.382;2023-05-23T04:22:34;14.00;99.90
20070;DHT22;10195;50.868;4.382;2023-05-23T04:24:59;14.10;99.90
20070;DHT22;10195;50.868;4.382;2023-05-23T04:27:25;14.20;99.90
20070;DHT22;10195;50.868;4.382;2023-05-23T04:29:51;14.10;99.90
20070;DHT22;10195;50.868;4.382;2023-05-23T04:32:17;14.20;99.90
20070;DHT22;10195;50.868;4.382;2023-05-23T04:34:44;14.30;99.90
20070;DHT22;10195;50.868;4.382;2023-05-23T04:37:10;14.30;99.90
20070;DHT22;10195;50.868;4.382;2023-05-23T04:39:36;14.20;99.90
20070;DHT22;10195;50.868;4.382;2023-05-23T04:42:02;14.20;99.90
20070;DHT22;10195;50.868;4.382;2023-05-23T04:44:28;14.20;99.90
20070;DHT22;10195;50.868;4.382;2023-05-23T04:46:54;14.30;99.90
20070;DHT22;10195;50.868;4.382;2023-05-23T04:49:20;14.40;99.90
20070;DHT22;10195;50.868;4.382;2023-05-23T04:51:47;14.50;99.90
20070;DHT22;10195;50.868;4.382;2023-05-23T04:54:13;14.70;99.90
20070;DHT22;10195;50.868;4.382;2023-05-23T04:56:38;14.80;99.90
20070;DHT22;10195;50.868;4.382;2023-05-23T04:59:04;14.90;99.90
20070;DHT22;10195;50.868;4.382;2023-05-23T05:01:30;14.60;99.90
20070;DHT22;10195;50.868;4.382;2023-05-23T05:03:55;14.40;99.90
20070;DHT22;10195;50.868;4.382;2023-05-23T05:06:22;14.20;99.90
20070;DHT22;10195;50.868;4.382;2023-05-23T05:08:47;14.10;99.90
20070;DHT22;10195;50.868;4.382;2023-05-23T05:11:13;14.20;99.90
20070;DHT22;10195;50.868;4.382;2023-05-23T05:13:39;14.10;99.90
20070;DHT22;10195;50.868;4.382;2023-05-23T05:16:05;14.20;99.90
20070;DHT22;10195;50.868;4.382;2023-05-23T05:18:31;14.10;99.90
20070;DHT22;10195;50.868;4.382;2023-05-23T05:20:56;14.00;99.90
20070;DHT22;10195;50.868;4.382;2023-05-23T05:23:24;14.00;99.90
20070;DHT22;10195;50.868;4.382;2023-05-23T05:25:50;14.00;99.90
20070;DHT22;10195;50.868;4.382;2023-05-23T05:28:16;14.00;99.90
20070;DHT22;10195;50.868;4.382;2023-05-23T05:30:42;13.90;99.90
20070;DHT22;10195;50.868;4.382;2023-05-23T05:33:07;13.90;99.90
20070;DHT22;10195;50.868;4.382;2023-05-23T05:35:34;13.90;99.90
20070;DHT22;10195;50.868;4.382;2023-05-23T05:38:00;13.80;99.90
20070;DHT22;10195;50.868;4.382;2023-05-23T05:40:32;13.90;99.90
20070;DHT22;10195;50.868;4.382;2023-05-23T05:42:58;13.90;99.90
20070;DHT22;10195;50.868;4.382;2023-05-23T05:45:24;13.90;99.90
20070;DHT22;10195;50.868;4.382;2023-05-23T05:47:49;14.00;99.90
20070;DHT22;10195;50.868;4.382;2023-05-23T05:50:16;13.90;99.90
20070;DHT22;10195;50.868;4.382;2023-05-23T05:52:41;13.90;99.90
20070;DHT22;10195;50.868;4.382;2023-05-23T05:55:10;14.00;99.90
20070;DHT22;10195;50.868;4.382;2023-05-23T05:57:36;13.90;99.90
20070;DHT22;10195;50.868;4.382;2023-05-23T06:00:07;13.90;99.90
20070;DHT22;10195;50.868;4.382;2023-05-23T06:02:44;13.80;99.90
20070;DHT22;10195;50.868;4.382;2023-05-23T06:05:12;13.70;99.90
20070;DHT22;10195;50.868;4.382;2023-05-23T06:07:39;13.70;99.90
20070;DHT22;10195;50.868;4.382;2023-05-23T06:10:05;13.70;99.90
20070;DHT22;10195;50.868;4.382;2023-05-23T06:12:32;13.60;99.90
20070;DHT22;10195;50.868;4.382;2023-05-23T06:14:58;13.60;99.90
20070;DHT22;10195;50.868;4.382;2023-05-23T06:17:24;13.50;99.90
20070;DHT22;10195;50.868;4.382;2023-05-23T06:19:50;13.60;99.90
20070;DHT22;10195;50.868;4.382;2023-05-23T06:22:15;13.50;99.90
20070;DHT22;10195;50.868;4.382;2023-05-23T06:24:41;13.40;99.90
20070;DHT22;10195;50.868;4.382;2023-05-23T06:27:07;13.30;99.90
20070;DHT22;10195;50.868;4.382;2023-05-23T06:29:32;13.30;99.90
20070;DHT22;10195;50.868;4.382;2023-05-23T06:32:00;13.30;99.90
20070;DHT22;10195;50.868;4.382;2023-05-23T06:34:25;13.30;99.90
20070;DHT22;10195;50.868;4.382;2023-05-23T06:36:51;13.20;99.90
20070;DHT22;10195;50.868;4.382;2023-05-23T06:39:17;13.30;99.90
20070;DHT22;10195;50.868;4.382;2023-05-23T06:41:42;13.30;99.90
20070;DHT22;10195;50.868;4.382;2023-05-23T06:44:08;13.30;99.90
20070;DHT22;10195;50.868;4.382;2023-05-23T06:46:34;13.50;99.90
20070;DHT22;10195;50.868;4.382;2023-05-23T06:48:59;13.40;99.90
20070;DHT22;10195;50.868;4.382;2023-05-23T06:51:25;13.50;99.90
20070;DHT22;10195;50.868;4.382;2023-05-23T06:53:51;13.70;99.90
20070;DHT22;10195;50.868;4.382;2023-05-23T06:56:16;13.60;99.90
20070;DHT22;10195;50.868;4.382;2023-05-23T06:58:42;13.70;99.90
20070;DHT22;10195;50.868;4.382;2023-05-23T07:01:08;13.80;99.90
20070;DHT22;10195;50.868;4.382;2023-05-23T07:03:35;14.00;99.90
20070;DHT22;10195;50.868;4.382;2023-05-23T07:06:03;13.80;99.90
20070;DHT22;10195;50.868;4.382;2023-05-23T07:08:28;13.70;99.90
20070;DHT22;10195;50.868;4.382;2023-05-23T07:10:54;13.80;99.90
20070;DHT22;10195;50.868;4.382;2023-05-23T07:13:20;13.70;99.90
20070;DHT22;10195;50.868;4.382;2023-05-23T07:15:45;13.70;99.90
20070;DHT22;10195;50.868;4.382;2023-05-23T07:18:11;13.70;99.90
20070;DHT22;10195;50.868;4.382;2023-05-23T07:20:37;13.80;99.90
20070;DHT22;10195;50.868;4.382;2023-05-23T07:23:02;14.00;99.90
20070;DHT22;10195;50.868;4.382;2023-05-23T07:25:28;14.20;99.90
20070;DHT22;10195;50.868;4.382;2023-05-23T07:27:54;14.50;99.90
20070;DHT22;10195;50.868;4.382;2023-05-23T07:30:20;14.70;99.90
20070;DHT22;10195;50.868;4.382;2023-05-23T07:32:47;14.90;99.90
20070;DHT22;10195;50.868;4.382;2023-05-23T07:35:16;14.80;99.90
20070;DHT22;10195;50.868;4.382;2023-05-23T07:37:41;15.60;99.90
20070;DHT22;10195;50.868;4.382;2023-05-23T07:40:07;16.50;99.90
20070;DHT22;10195;50.868;4.382;2023-05-23T07:42:35;16.70;99.90
20070;DHT22;10195;50.868;4.382;2023-05-23T07:45:02;17.40;99.90
20070;DHT22;10195;50.868;4.382;2023-05-23T07:47:28;18.20;99.90
20070;DHT22;10195;50.868;4.382;2023-05-23T07:49:54;17.80;99.90
20070;DHT22;10195;50.868;4.382;2023-05-23T07:52:19;16.50;99.90
20070;DHT22;10195;50.868;4.382;2023-05-23T07:54:45;15.80;99.90
20070;DHT22;10195;50.868;4.382;2023-05-23T07:57:11;15.50;99.90
20070;DHT22;10195;50.868;4.382;2023-05-23T07:59:37;16.00;99.90
20070;DHT22;10195;50.868;4.382;2023-05-23T08:02:03;16.20;99.90
20070;DHT22;10195;50.868;4.382;2023-05-23T08:04:28;15.70;99.90
20070;DHT22;10195;50.868;4.382;2023-05-23T08:06:54;15.50;99.90
20070;DHT22;10195;50.868;4.382;2023-05-23T08:09:21;16.10;99.90
20070;DHT22;10195;50.868;4.382;2023-05-23T08:11:47;16.40;99.90
20070;DHT22;10195;50.868;4.382;2023-05-23T08:14:13;16.30;99.90
20070;DHT22;10195;50.868;4.382;2023-05-23T08:16:38;16.00;99.90
20070;DHT22;10195;50.868;4.382;2023-05-23T08:19:05;16.10;99.90
20070;DHT22;10195;50.868;4.382;2023-05-23T08:21:30;15.90;99.90
20070;DHT22;10195;50.868;4.382;2023-05-23T08:23:57;16.10;99.90
20070;DHT22;10195;50.868;4.382;2023-05-23T08:26:22;15.90;99.90
20070;DHT22;10195;50.868;4.382;2023-05-23T08:28:48;15.50;99.90
20070;DHT22;10195;50.868;4.382;2023-05-23T08:31:14;15.50;99.90
20070;DHT22;10195;50.868;4.382;2023-05-23T08:33:39;15.90;99.90
20070;DHT22;10195;50.868;4.382;2023-05-23T08:36:05;15.90;99.90
20070;DHT22;10195;50.868;4.382;2023-05-23T08:38:31;16.20;99.90
20070;DHT22;10195;50.868;4.382;2023-05-23T08:40:59;16.00;99.90
20070;DHT22;10195;50.868;4.382;2023-05-23T08:43:25;16.00;99.90
20070;DHT22;10195;50.868;4.382;2023-05-23T08:45:51;16.40;99.90
20070;DHT22;10195;50.868;4.382;2023-05-23T08:48:19;16.90;99.90
20070;DHT22;10195;50.868;4.382;2023-05-23T08:50:46;16.60;99.90
20070;DHT22;10195;50.868;4.382;2023-05-23T08:53:15;16.00;99.90
20070;DHT22;10195;50.868;4.382;2023-05-23T08:55:48;16.30;99.90
20070;DHT22;10195;50.868;4.382;2023-05-23T08:58:17;16.30;99.90
20070;DHT22;10195;50.868;4.382;2023-05-23T09:00:45;17.10;99.90
20070;DHT22;10195;50.868;4.382;2023-05-23T09:03:11;17.50;99.90
20070;DHT22;10195;50.868;4.382;2023-05-23T09:05:38;16.60;99.90
20070;DHT22;10195;50.868;4.382;2023-05-23T09:08:04;16.20;99.90
20070;DHT22;10195;50.868;4.382;2023-05-23T09:10:30;15.60;99.90
20070;DHT22;10195;50.868;4.382;2023-05-23T09:12:56;15.80;99.90
20070;DHT22;10195;50.868;4.382;2023-05-23T09:15:23;15.90;99.90
20070;DHT22;10195;50.868;4.382;2023-05-23T09:17:48;15.90;99.90
20070;DHT22;10195;50.868;4.382;2023-05-23T09:20:16;16.30;99.90
20070;DHT22;10195;50.868;4.382;2023-05-23T09:22:46;16.00;99.90
20070;DHT22;10195;50.868;4.382;2023-05-23T09:25:15;15.60;99.90
20070;DHT22;10195;50.868;4.382;2023-05-23T09:27:41;15.30;99.90
20070;DHT22;10195;50.868;4.382;2023-05-23T09:30:08;15.20;99.90
20070;DHT22;10195;50.868;4.382;2023-05-23T09:32:35;15.40;99.90
20070;DHT22;10195;50.868;4.382;2023-05-23T09:35:09;16.10;99.90
20070;DHT22;10195;50.868;4.382;2023-05-23T09:37:41;16.10;99.90
20070;DHT22;10195;50.868;4.382;2023-05-23T09:40:09;15.40;99.90
20070;DHT22;10195;50.868;4.382;2023-05-23T09:42:36;15.60;99.90
20070;DHT22;10195;50.868;4.382;2023-05-23T09:45:06;15.60;99.90
20070;DHT22;10195;50.868;4.382;2023-05-23T09:47:32;15.20;99.90
20070;DHT22;10195;50.868;4.382;2023-05-23T09:49:57;15.10;99.90
20070;DHT22;10195;50.868;4.382;2023-05-23T09:52:23;15.00;99.90
20070;DHT22;10195;50.868;4.382;2023-05-23T09:54:49;14.90;99.90
20070;DHT22;10195;50.868;4.382;2023-05-23T09:57:15;14.80;99.90
20070;DHT22;10195;50.868;4.382;2023-05-23T09:59:51;14.80;99.90
20070;DHT22;10195;50.868;4.382;2023-05-23T10:02:40;14.90;99.90
20070;DHT22;10195;50.868;4.382;2023-05-23T10:07:50;15.00;99.90
20070;DHT22;10195;50.868;4.382;2023-05-23T10:10:16;15.40;99.90
20070;DHT22;10195;50.868;4.382;2023-05-23T10:12:49;15.80;99.90
20070;DHT22;10195;50.868;4.382;2023-05-23T10:15:17;15.80;99.90
20070;DHT22;10195;50.868;4.382;2023-05-23T10:18:03;15.80;99.90
20070;DHT22;10195;50.868;4.382;2023-05-23T10:20:31;15.70;99.90
20070;DHT22;10195;50.868;4.382;2023-05-23T10:23:01;16.20;99.90
20070;DHT22;10195;50.868;4.382;2023-05-23T10:25:27;16.70;99.90
20070;DHT22;10195;50.868;4.382;2023-05-23T10:27:54;16.90;99.90
20070;DHT22;10195;50.868;4.382;2023-05-23T10:30:26;16.80;99.90
20070;DHT22;10195;50.868;4.382;2023-05-23T10:32:55;16.80;99.90
20070;DHT22;10195;50.868;4.382;2023-05-23T10:38:31;17.50;99.90
20070;DHT22;10195;50.868;4.382;2023-05-23T10:46:07;16.80;99.90
20070;DHT22;10195;50.868;4.382;2023-05-23T10:48:41;16.30;99.90
20070;DHT22;10195;50.868;4.382;2023-05-23T10:51:08;16.30;99.90
20070;DHT22;10195;50.868;4.382;2023-05-23T10:53:36;16.20;99.90
20070;DHT22;10195;50.868;4.382;2023-05-23T10:56:08;16.10;99.90
20070;DHT22;10195;50.868;4.382;2023-05-23T10:58:35;16.40;99.90
20070;DHT22;10195;50.868;4.382;2023-05-23T11:01:05;16.50;99.90
20070;DHT22;10195;50.868;4.382;2023-05-23T11:03:48;16.30;99.90
20070;DHT22;10195;50.868;4.382;2023-05-23T11:06:37;16.90;99.90
20070;DHT22;10195;50.868;4.382;2023-05-23T11:09:14;17.10;99.90
20070;DHT22;10195;50.868;4.382;2023-05-23T11:14:19;17.40;99.90
20070;DHT22;10195;50.868;4.382;2023-05-23T11:16:46;17.00;99.90
20070;DHT22;10195;50.868;4.382;2023-05-23T11:22:00;16.60;99.90
20070;DHT22;10195;50.868;4.382;2023-05-23T11:24:47;16.30;99.90
20070;DHT22;10195;50.868;4.382;2023-05-23T11:30:11;16.90;99.90
20070;DHT22;10195;50.868;4.382;2023-05-23T11:32:42;17.10;99.90
20070;DHT22;10195;50.868;4.382;2023-05-23T11:35:09;17.10;99.90
20070;DHT22;10195;50.868;4.382;2023-05-23T11:37:36;17.40;99.90
20070;DHT22;10195;50.868;4.382;2023-05-23T11:40:31;17.90;99.90
20070;DHT22;10195;50.868;4.382;2023-05-23T11:42:58;17.30;99.90
20070;DHT22;10195;50.868;4.382;2023-05-23T11:45:25;16.90;99.90
20070;DHT22;10195;50.868;4.382;2023-05-23T11:47:51;16.80;99.90
20070;DHT22;10195;50.868;4.382;2023-05-23T11:50:17;16.60;99.90
20070;DHT22;10195;50.868;4.382;2023-05-23T11:52:45;16.60;99.90
20070;DHT22;10195;50.868;4.382;2023-05-23T11:55:19;16.90;99.90
20070;DHT22;10195;50.868;4.382;2023-05-23T11:57:45;17.20;99.90
20070;DHT22;10195;50.868;4.382;2023-05-23T12:00:12;17.30;99.90
20070;DHT22;10195;50.868;4.382;2023-05-23T12:02:42;18.00;99.90
20070;DHT22;10195;50.868;4.382;2023-05-23T12:05:12;18.00;99.90
20070;DHT22;10195;50.868;4.382;2023-05-23T12:07:42;18.00;99.90
20070;DHT22;10195;50.868;4.382;2023-05-23T12:10:10;18.00;99.90
20070;DHT22;10195;50.868;4.382;2023-05-23T12:12:36;18.10;99.90
20070;DHT22;10195;50.868;4.382;2023-05-23T12:15:02;17.90;99.90
20070;DHT22;10195;50.868;4.382;2023-05-23T12:17:29;18.20;99.90
20070;DHT22;10195;50.868;4.382;2023-05-23T12:19:55;17.90;99.90
20070;DHT22;10195;50.868;4.382;2023-05-23T12:22:24;18.00;99.90
20070;DHT22;10195;50.868;4.382;2023-05-23T12:24:53;17.70;99.90
20070;DHT22;10195;50.868;4.382;2023-05-23T12:27:29;17.50;99.90
20070;DHT22;10195;50.868;4.382;2023-05-23T12:30:09;17.30;99.90
20070;DHT22;10195;50.868;4.382;2023-05-23T12:32:39;17.70;99.90
20070;DHT22;10195;50.868;4.382;2023-05-23T12:35:07;17.90;99.90
20070;DHT22;10195;50.868;4.382;2023-05-23T12:37:33;17.90;99.90
20070;DHT22;10195;50.868;4.382;2023-05-23T12:40:14;17.90;99.90
20070;DHT22;10195;50.868;4.382;2023-05-23T12:45:23;17.10;99.90
20070;DHT22;10195;50.868;4.382;2023-05-23T12:47:49;17.20;99.90
20070;DHT22;10195;50.868;4.382;2023-05-23T12:50:15;17.60;99.90
20070;DHT22;10195;50.868;4.382;2023-05-23T12:52:41;17.90;99.90
20070;DHT22;10195;50.868;4.382;2023-05-23T12:55:07;18.00;99.90
20070;DHT22;10195;50.868;4.382;2023-05-23T12:57:34;18.20;99.90
20070;DHT22;10195;50.868;4.382;2023-05-23T13:00:00;18.10;99.90
20070;DHT22;10195;50.868;4.382;2023-05-23T13:02:29;18.20;99.90
20070;DHT22;10195;50.868;4.382;2023-05-23T13:04:54;18.10;99.90
20070;DHT22;10195;50.868;4.382;2023-05-23T13:07:21;18.10;99.90
20070;DHT22;10195;50.868;4.382;2023-05-23T13:09:46;18.20;99.90
20070;DHT22;10195;50.868;4.382;2023-05-23T13:12:12;17.80;99.90
20070;DHT22;10195;50.868;4.382;2023-05-23T13:14:38;17.50;99.90
20070;DHT22;10195;50.868;4.382;2023-05-23T13:17:04;17.50;99.90
20070;DHT22;10195;50.868;4.382;2023-05-23T13:19:29;17.70;99.90
20070;DHT22;10195;50.868;4.382;2023-05-23T13:21:55;17.80;99.90
20070;DHT22;10195;50.868;4.382;2023-05-23T13:24:21;17.80;99.90
20070;DHT22;10195;50.868;4.382;2023-05-23T13:26:47;17.80;99.90
20070;DHT22;10195;50.868;4.382;2023-05-23T13:29:13;17.80;99.90
20070;DHT22;10195;50.868;4.382;2023-05-23T13:31:38;18.10;99.90
20070;DHT22;10195;50.868;4.382;2023-05-23T13:34:04;18.00;99.90
20070;DHT22;10195;50.868;4.382;2023-05-23T13:36:30;18.20;99.90
20070;DHT22;10195;50.868;4.382;2023-05-23T13:38:56;18.10;99.90
20070;DHT22;10195;50.868;4.382;2023-05-23T13:41:21;18.20;99.90
20070;DHT22;10195;50.868;4.382;2023-05-23T13:43:47;18.20;99.90
20070;DHT22;10195;50.868;4.382;2023-05-23T13:46:13;18.00;99.90
20070;DHT22;10195;50.868;4.382;2023-05-23T13:48:39;18.00;99.90
20070;DHT22;10195;50.868;4.382;2023-05-23T13:51:05;18.00;99.90
20070;DHT22;10195;50.868;4.382;2023-05-23T13:53:31;18.00;99.90
20070;DHT22;10195;50.868;4.382;2023-05-23T13:55:56;18.20;99.90
20070;DHT22;10195;50.868;4.382;2023-05-23T13:58:22;18.30;99.90
20070;DHT22;10195;50.868;4.382;2023-05-23T14:00:48;18.40;99.90
20070;DHT22;10195;50.868;4.382;2023-05-23T14:03:14;18.20;99.90
20070;DHT22;10195;50.868;4.382;2023-05-23T14:05:40;18.20;99.90
20070;DHT22;10195;50.868;4.382;2023-05-23T14:08:06;18.40;99.90
20070;DHT22;10195;50.868;4.382;2023-05-23T14:10:32;18.30;99.90
20070;DHT22;10195;50.868;4.382;2023-05-23T14:12:58;18.50;99.90
20070;DHT22;10195;50.868;4.382;2023-05-23T14:15:24;18.50;99.90
20070;DHT22;10195;50.868;4.382;2023-05-23T14:17:50;18.60;99.90
20070;DHT22;10195;50.868;4.382;2023-05-23T14:20:22;18.70;99.90
20070;DHT22;10195;50.868;4.382;2023-05-23T14:22:49;18.50;99.90
20070;DHT22;10195;50.868;4.382;2023-05-23T14:25:16;18.40;99.90
20070;DHT22;10195;50.868;4.382;2023-05-23T14:27:43;18.30;99.90
20070;DHT22;10195;50.868;4.382;2023-05-23T14:30:09;18.30;99.90
20070;DHT22;10195;50.868;4.382;2023-05-23T14:32:35;18.30;99.90
20070;DHT22;10195;50.868;4.382;2023-05-23T14:35:08;17.90;99.90
20070;DHT22;10195;50.868;4.382;2023-05-23T14:37:34;17.90;99.90
20070;DHT22;10195;50.868;4.382;2023-05-23T14:40:00;17.90;99.90
20070;DHT22;10195;50.868;4.382;2023-05-23T14:42:25;18.00;99.90
20070;DHT22;10195;50.868;4.382;2023-05-23T14:44:52;18.30;99.90
20070;DHT22;10195;50.868;4.382;2023-05-23T14:47:19;18.40;99.90
20070;DHT22;10195;50.868;4.382;2023-05-23T14:49:44;18.30;99.90
20070;DHT22;10195;50.868;4.382;2023-05-23T14:52:11;18.20;99.90
20070;DHT22;10195;50.868;4.382;2023-05-23T14:54:37;18.10;99.90
20070;DHT22;10195;50.868;4.382;2023-05-23T14:57:08;18.10;99.90
20070;DHT22;10195;50.868;4.382;2023-05-23T14:59:34;17.90;99.90
20070;DHT22;10195;50.868;4.382;2023-05-23T15:02:04;18.00;99.90
20070;DHT22;10195;50.868;4.382;2023-05-23T15:04:32;18.00;99.90
20070;DHT22;10195;50.868;4.382;2023-05-23T15:06:58;17.80;99.90
20070;DHT22;10195;50.868;4.382;2023-05-23T15:09:25;17.90;99.90
20070;DHT22;10195;50.868;4.382;2023-05-23T15:11:51;17.60;99.90
20070;DHT22;10195;50.868;4.382;2023-05-23T15:14:17;17.60;99.90
20070;DHT22;10195;50.868;4.382;2023-05-23T15:16:44;17.60;99.90
20070;DHT22;10195;50.868;4.382;2023-05-23T15:19:10;17.30;99.90
20070;DHT22;10195;50.868;4.382;2023-05-23T15:21:36;17.60;99.90
20070;DHT22;10195;50.868;4.382;2023-05-23T15:24:01;17.90;99.90
20070;DHT22;10195;50.868;4.382;2023-05-23T15:26:28;17.90;99.90
20070;DHT22;10195;50.868;4.382;2023-05-23T15:28:54;17.70;99.90
20070;DHT22;10195;50.868;4.382;2023-05-23T15:31:20;17.80;99.90
20070;DHT22;10195;50.868;4.382;2023-05-23T15:33:46;17.70;99.90
20070;DHT22;10195;50.868;4.382;2023-05-23T15:36:12;17.50;99.90
20070;DHT22;10195;50.868;4.382;2023-05-23T15:38:38;17.30;99.90
20070;DHT22;10195;50.868;4.382;2023-05-23T15:41:04;17.30;99.90
20070;DHT22;10195;50.868;4.382;2023-05-23T15:43:31;17.20;99.90
20070;DHT22;10195;50.868;4.382;2023-05-23T15:45:57;17.10;99.90
20070;DHT22;10195;50.868;4.382;2023-05-23T15:48:23;16.90;99.90
20070;DHT22;10195;50.868;4.382;2023-05-23T15:50:49;17.00;99.90
20070;DHT22;10195;50.868;4.382;2023-05-23T15:53:14;17.10;99.90
20070;DHT22;10195;50.868;4.382;2023-05-23T15:55:40;17.10;99.90
20070;DHT22;10195;50.868;4.382;2023-05-23T15:58:06;17.10;99.90